Time;durP1;ratioP1;P1;durP2;ratioP2;P2;SDS_P1;SDS_P2;PMS_P1;PMS_P2;Temp;Humidity;BMP_temperature;BMP_pressure;BME280_temperature;BME280_humidity;BME280_pressure;Samples;Min_cycle;Max_cycle;Signal;HPM_P1;HPM_P2
2023/05/19 00:01:16;;;;;;;2.50;2.00;;;16.10;56.00;;;;;;5011862;28;20487;-79
2023/05/19 00:03:53;;;;;;;3.47;2.13;;;16.00;56.00;;;;;;5013428;28;20036;-78
2023/05/19 00:06:37;;;;;;;2.72;1.77;;;16.00;56.10;;;;;;5029078;28;20034;-78
2023/05/19 00:09:08;;;;;;;3.08;1.92;;;16.00;56.20;;;;;;5012501;28;20506;-78
2023/05/19 00:11:36;;;;;;;3.05;1.83;;;15.90;56.10;;;;;;5013604;28;20034;-79
2023/05/19 00:14:03;;;;;;;4.50;2.08;;;15.90;56.20;;;;;;5045811;28;20030;-78
2023/05/19 00:16:30;;;;;;;2.78;2.03;;;15.90;56.30;;;;;;5028211;28;20118;-78
2023/05/19 00:19:01;;;;;;;2.78;2.15;;;15.80;56.30;;;;;;5028327;28;20026;-79
2023/05/19 00:21:28;;;;;;;3.65;2.05;;;15.80;56.30;;;;;;5028415;28;20392;-78
2023/05/19 00:23:54;;;;;;;3.03;1.95;;;15.80;56.40;;;;;;5028584;28;20521;-79
2023/05/19 00:26:21;;;;;;;2.70;2.03;;;15.80;56.40;;;;;;5012287;28;20061;-78
2023/05/19 00:28:54;;;;;;;3.38;2.15;;;15.80;56.50;;;;;;4996617;28;20080;-79
2023/05/19 00:31:20;;;;;;;2.70;1.88;;;15.70;56.50;;;;;;5012032;28;20116;-78
2023/05/19 00:33:46;;;;;;;2.97;2.10;;;15.70;56.50;;;;;;5011873;28;20065;-79
2023/05/19 00:36:12;;;;;;;2.40;2.00;;;15.70;56.60;;;;;;5014552;28;20037;-79
2023/05/19 00:38:38;;;;;;;3.55;1.95;;;15.60;56.60;;;;;;5015640;28;20080;-79
2023/05/19 00:41:05;;;;;;;2.88;2.00;;;15.60;56.70;;;;;;5016432;28;20037;-79
2023/05/19 00:43:34;;;;;;;3.10;2.30;;;15.60;56.70;;;;;;4999413;28;20049;-79
2023/05/19 00:46:01;;;;;;;4.20;2.30;;;15.60;56.70;;;;;;5031763;28;20046;-78
2023/05/19 00:48:27;;;;;;;3.47;1.90;;;15.50;56.70;;;;;;4999359;28;20487;-78
2023/05/19 00:50:55;;;;;;;2.15;1.80;;;15.50;56.80;;;;;;5015786;28;20046;-78
2023/05/19 00:53:23;;;;;;;2.75;1.92;;;15.50;56.80;;;;;;5032359;28;20405;-79
2023/05/19 00:55:49;;;;;;;2.00;1.80;;;15.40;56.90;;;;;;5015420;28;20111;-78
2023/05/19 00:58:17;;;;;;;2.85;1.90;;;15.50;56.90;;;;;;4999208;28;20029;-78
2023/05/19 01:00:43;;;;;;;2.35;1.98;;;15.40;56.90;;;;;;5031668;28;20455;-78
2023/05/19 01:03:12;;;;;;;2.40;1.85;;;15.30;56.90;;;;;;4999093;28;20041;-79
2023/05/19 01:05:46;;;;;;;3.55;2.10;;;15.30;57.00;;;;;;5015284;28;20052;-78
2023/05/19 01:08:12;;;;;;;2.63;1.92;;;15.30;57.10;;;;;;5015249;28;20060;-78
2023/05/19 01:10:38;;;;;;;3.05;2.20;;;15.30;57.10;;;;;;4998911;28;20045;-78
2023/05/19 01:13:04;;;;;;;2.90;1.90;;;15.20;57.10;;;;;;5031455;28;20030;-79
2023/05/19 01:15:43;;;;;;;3.72;1.90;;;15.20;57.10;;;;;;4998796;28;20040;-78
2023/05/19 01:18:15;;;;;;;3.88;2.00;;;15.20;57.20;;;;;;5031414;28;20065;-79
2023/05/19 01:20:46;;;;;;;3.47;2.13;;;15.20;57.20;;;;;;5015615;28;20076;-79
2023/05/19 01:23:37;;;;;;;3.83;2.38;;;15.20;57.30;;;;;;5015490;28;20109;-79
2023/05/19 01:26:08;;;;;;;2.60;1.90;;;15.10;57.40;;;;;;5014793;28;20062;-79
2023/05/19 01:29:11;;;;;;;3.03;2.05;;;15.10;57.30;;;;;;5031415;28;20026;-79
2023/05/19 01:31:40;;;;;;;2.28;1.70;;;15.10;57.40;;;;;;5014585;28;20062;-79
2023/05/19 01:34:08;;;;;;;2.05;1.85;;;15.00;57.40;;;;;;5015973;28;20029;-79
2023/05/19 01:36:35;;;;;;;2.90;1.90;;;15.00;57.40;;;;;;5031390;28;20030;-79
2023/05/19 01:39:02;;;;;;;3.08;2.20;;;15.00;57.50;;;;;;4998565;28;20112;-79
2023/05/19 01:41:31;;;;;;;2.67;2.10;;;15.00;57.60;;;;;;4998683;28;20030;-79
2023/05/19 01:43:57;;;;;;;3.67;2.00;;;15.00;57.60;;;;;;5014657;28;20037;-78
2023/05/19 01:46:23;;;;;;;3.75;2.10;;;14.90;57.60;;;;;;5014583;28;20034;-78
2023/05/19 01:48:49;;;;;;;2.78;2.33;;;14.90;57.60;;;;;;4997971;28;20037;-78
2023/05/19 01:51:16;;;;;;;3.25;2.42;;;14.90;57.60;;;;;;5014190;28;20057;-78
2023/05/19 01:53:42;;;;;;;2.63;2.00;;;14.90;57.70;;;;;;5013953;28;20033;-79
2023/05/19 01:56:08;;;;;;;2.90;1.98;;;14.80;57.70;;;;;;5014506;28;20080;-78
2023/05/19 01:58:57;;;;;;;2.58;2.13;;;14.80;57.80;;;;;;5014857;28;20056;-79
2023/05/19 02:01:33;;;;;;;3.10;2.05;;;14.80;57.90;;;;;;5031070;28;20030;-78
2023/05/19 02:04:17;;;;;;;3.05;2.03;;;14.80;57.80;;;;;;5015194;28;20029;-78
2023/05/19 02:07:04;;;;;;;3.20;2.10;;;14.70;57.80;;;;;;5014862;28;20114;-78
2023/05/19 02:09:39;;;;;;;2.72;2.03;;;14.70;57.90;;;;;;5013944;28;20486;-78
2023/05/19 02:12:19;;;;;;;2.15;1.88;;;14.70;57.90;;;;;;5030430;28;20037;-78
2023/05/19 02:15:15;;;;;;;2.65;2.13;;;14.70;58.00;;;;;;5013567;28;20100;-79
2023/05/19 02:17:49;;;;;;;2.65;2.03;;;14.60;58.00;;;;;;5013551;28;20096;-78
2023/05/19 02:20:15;;;;;;;2.20;1.92;;;14.60;58.00;;;;;;5030472;28;20131;-77
2023/05/19 02:22:41;;;;;;;2.90;1.92;;;14.60;58.00;;;;;;5030029;28;20049;-79
2023/05/19 02:25:08;;;;;;;1.92;1.73;;;14.50;58.10;;;;;;5046650;28;20141;-78
2023/05/19 02:27:37;;;;;;;2.13;1.92;;;14.50;58.10;;;;;;5030390;28;20026;-78
2023/05/19 02:30:04;;;;;;;2.78;1.92;;;14.50;58.10;;;;;;5030521;28;20030;-78
2023/05/19 02:32:31;;;;;;;2.72;2.30;;;14.50;58.20;;;;;;5046545;28;20375;-79
2023/05/19 02:34:57;;;;;;;3.80;2.28;;;14.50;58.30;;;;;;5029798;28;20427;-78
2023/05/19 02:37:24;;;;;;;2.95;2.33;;;14.40;58.30;;;;;;5046412;28;20475;-79
2023/05/19 02:39:50;;;;;;;4.18;2.30;;;14.40;58.40;;;;;;5013450;28;20053;-79
2023/05/19 02:42:17;;;;;;;2.58;2.00;;;14.40;58.40;;;;;;5014249;28;20146;-77
2023/05/19 02:44:43;;;;;;;3.45;2.30;;;14.30;58.40;;;;;;4997004;28;20041;-78
2023/05/19 02:47:08;;;;;;;2.75;2.15;;;14.30;58.40;;;;;;5013254;28;20033;-78
2023/05/19 02:49:37;;;;;;;2.13;1.85;;;14.30;58.50;;;;;;5013538;28;20451;-79
2023/05/19 02:52:03;;;;;;;3.65;2.30;;;14.30;58.50;;;;;;4997884;28;20459;-79
2023/05/19 02:54:30;;;;;;;3.00;2.17;;;14.20;58.50;;;;;;5029278;28;20040;-79
2023/05/19 02:56:56;;;;;;;3.35;2.20;;;14.20;58.60;;;;;;4996675;28;20026;-78
2023/05/19 02:59:23;;;;;;;3.78;2.42;;;14.20;58.60;;;;;;5012432;28;20022;-79
2023/05/19 03:01:49;;;;;;;4.53;2.03;;;14.20;58.60;;;;;;5013285;28;20026;-79
2023/05/19 03:04:18;;;;;;;2.15;1.85;;;14.10;58.60;;;;;;5012857;28;20553;-78
2023/05/19 03:06:45;;;;;;;5.13;2.58;;;14.10;58.70;;;;;;4996226;28;20025;-79
2023/05/19 03:09:12;;;;;;;3.55;2.33;;;14.10;58.70;;;;;;5030083;28;20064;-79
2023/05/19 03:11:38;;;;;;;3.38;2.30;;;14.10;58.80;;;;;;5029242;28;20030;-79
2023/05/19 03:14:04;;;;;;;3.92;2.17;;;14.00;58.80;;;;;;5012936;28;20080;-79
2023/05/19 03:16:30;;;;;;;3.60;2.22;;;14.00;58.80;;;;;;4997097;28;20029;-77
2023/05/19 03:18:56;;;;;;;3.95;2.63;;;14.00;58.90;;;;;;4996499;28;20468;-78
2023/05/19 03:21:22;;;;;;;2.47;2.00;;;14.00;59.00;;;;;;5012723;28;20038;-78
2023/05/19 03:23:47;;;;;;;3.53;2.30;;;13.90;58.90;;;;;;5012676;28;20128;-77
2023/05/19 03:26:13;;;;;;;4.90;2.53;;;13.90;58.90;;;;;;4996970;28;20459;-79
2023/05/19 03:28:39;;;;;;;3.47;2.22;;;13.90;58.90;;;;;;5045256;28;20061;-78
2023/05/19 03:31:05;;;;;;;3.05;2.17;;;13.90;59.00;;;;;;4996044;28;20045;-78
2023/05/19 03:33:35;;;;;;;2.90;2.35;;;13.90;59.00;;;;;;5013978;28;20070;-78
2023/05/19 03:36:03;;;;;;;3.30;2.22;;;13.90;59.00;;;;;;5012653;28;20152;-79
2023/05/19 03:38:33;;;;;;;3.20;2.33;;;13.80;59.10;;;;;;5013074;28;20030;-78
2023/05/19 03:40:59;;;;;;;3.25;2.40;;;13.80;59.10;;;;;;5013045;28;20029;-78
2023/05/19 03:43:24;;;;;;;4.25;2.50;;;13.80;59.10;;;;;;4996152;28;20336;-78
2023/05/19 03:45:55;;;;;;;2.88;2.40;;;13.70;59.10;;;;;;5012596;28;20046;-78
2023/05/19 03:48:56;;;;;;;4.35;2.88;;;13.70;59.20;;;;;;5011332;28;20038;-78
2023/05/19 03:51:51;;;;;;;2.92;2.40;;;13.70;59.20;;;;;;4972092;28;20047;-79
2023/05/19 03:54:26;;;;;;;3.83;2.47;;;13.70;59.20;;;;;;4982375;28;20482;-79
2023/05/19 03:56:52;;;;;;;3.28;2.40;;;13.60;59.20;;;;;;5045499;28;20037;-79
2023/05/19 03:59:17;;;;;;;2.78;2.47;;;13.60;59.30;;;;;;5012523;28;20026;-78
2023/05/19 04:01:43;;;;;;;2.47;2.15;;;13.60;59.40;;;;;;5046022;28;20492;-79
2023/05/19 04:04:09;;;;;;;4.43;2.88;;;13.60;59.40;;;;;;5013457;28;20042;-79
2023/05/19 04:06:36;;;;;;;3.72;2.55;;;13.60;59.40;;;;;;5012068;28;20034;-78
2023/05/19 04:09:09;;;;;;;3.63;2.42;;;13.50;59.50;;;;;;5045818;28;20060;-78
2023/05/19 04:11:36;;;;;;;3.00;2.25;;;13.60;59.50;;;;;;5032749;28;20034;-78
2023/05/19 04:14:01;;;;;;;3.17;2.53;;;13.50;59.50;;;;;;4999989;28;20053;-78
2023/05/19 04:16:27;;;;;;;3.33;2.50;;;13.50;59.60;;;;;;5016547;28;20104;-78
2023/05/19 04:18:53;;;;;;;3.50;2.22;;;13.50;59.60;;;;;;5000019;28;20060;-79
2023/05/19 04:21:21;;;;;;;3.67;2.65;;;13.50;59.60;;;;;;5016091;28;20069;-78
2023/05/19 04:23:47;;;;;;;3.63;2.72;;;13.50;59.70;;;;;;5049560;28;20512;-79
2023/05/19 04:26:16;;;;;;;4.90;2.80;;;13.40;59.70;;;;;;5015960;28;20038;-78
2023/05/19 04:28:43;;;;;;;3.88;2.42;;;13.40;59.70;;;;;;5032171;28;20088;-79
2023/05/19 04:31:13;;;;;;;3.20;2.20;;;13.40;59.80;;;;;;4999814;28;20040;-78
2023/05/19 04:33:39;;;;;;;4.00;2.55;;;13.40;59.80;;;;;;5000074;28;20030;-78
2023/05/19 04:36:09;;;;;;;3.63;2.53;;;13.40;59.80;;;;;;5015685;28;20084;-78
2023/05/19 04:38:36;;;;;;;3.83;2.70;;;13.40;59.80;;;;;;5032009;28;20029;-78
2023/05/19 04:41:03;;;;;;;2.75;2.40;;;13.30;59.80;;;;;;5016055;28;20390;-78
2023/05/19 04:43:30;;;;;;;3.33;2.28;;;13.40;59.90;;;;;;4999252;28;20037;-80
2023/05/19 04:45:57;;;;;;;3.67;2.88;;;13.30;59.90;;;;;;5015529;28;20049;-78
2023/05/19 04:48:23;;;;;;;3.58;2.60;;;13.30;60.00;;;;;;5015273;28;20030;-78
2023/05/19 04:50:50;;;;;;;3.88;2.60;;;13.30;60.00;;;;;;5015745;28;20058;-79
2023/05/19 04:53:16;;;;;;;3.63;2.50;;;13.30;60.00;;;;;;5016132;28;20037;-79
2023/05/19 04:55:43;;;;;;;3.42;2.35;;;13.30;60.10;;;;;;5015949;28;20137;-81
2023/05/19 04:58:09;;;;;;;3.60;2.50;;;13.30;60.10;;;;;;4999894;28;20026;-80
2023/05/19 05:00:38;;;;;;;3.58;2.70;;;13.20;60.10;;;;;;5016495;28;20038;-82
2023/05/19 05:03:07;;;;;;;2.80;2.22;;;13.30;60.10;;;;;;4999563;28;20057;-80
2023/05/19 05:05:33;;;;;;;3.85;2.60;;;13.20;60.10;;;;;;5015240;28;20482;-80
2023/05/19 05:08:00;;;;;;;3.33;2.60;;;13.30;60.20;;;;;;5031850;28;20031;-79
2023/05/19 05:10:29;;;;;;;4.57;2.60;;;13.20;60.20;;;;;;4999044;28;20045;-78
2023/05/19 05:12:55;;;;;;;5.13;2.55;;;13.30;60.30;;;;;;5048086;28;20030;-82
2023/05/19 05:15:21;;;;;;;4.18;2.85;;;13.20;60.20;;;;;;5031550;28;20378;-80
2023/05/19 05:17:49;;;;;;;3.42;2.33;;;13.20;60.20;;;;;;4999556;28;20057;-78
2023/05/19 05:20:15;;;;;;;3.92;2.33;;;13.20;60.20;;;;;;5031086;28;20132;-78
2023/05/19 05:22:41;;;;;;;3.50;2.53;;;13.20;60.20;;;;;;4997998;28;20080;-79
2023/05/19 05:25:08;;;;;;;4.25;2.92;;;13.20;60.30;;;;;;4998822;28;20030;-78
2023/05/19 05:27:35;;;;;;;3.45;2.40;;;13.20;60.30;;;;;;4998138;28;20033;-79
2023/05/19 05:30:04;;;;;;;4.20;2.58;;;13.20;60.30;;;;;;5047945;28;20029;-78
2023/05/19 05:32:30;;;;;;;3.35;2.47;;;13.20;60.30;;;;;;5015754;28;20414;-78
2023/05/19 05:34:56;;;;;;;3.17;2.70;;;13.20;60.30;;;;;;5014676;28;20061;-77
2023/05/19 05:37:22;;;;;;;2.88;2.20;;;13.20;60.30;;;;;;4998252;28;20105;-78
2023/05/19 05:39:48;;;;;;;3.65;2.38;;;13.20;60.30;;;;;;5014626;28;20038;-78
2023/05/19 05:42:14;;;;;;;3.03;2.63;;;13.20;60.30;;;;;;4998572;28;20024;-85
2023/05/19 05:44:41;;;;;;;3.75;2.80;;;13.20;60.30;;;;;;5014616;28;20064;-77
2023/05/19 05:47:07;;;;;;;2.88;2.47;;;13.20;60.30;;;;;;4998089;28;20022;-79
2023/05/19 05:49:37;;;;;;;5.45;2.75;;;13.30;60.40;;;;;;4998082;28;20062;-78
2023/05/19 05:52:04;;;;;;;3.33;2.33;;;13.20;60.40;;;;;;5015550;28;20030;-79
2023/05/19 05:54:31;;;;;;;4.38;2.80;;;13.20;60.40;;;;;;5030662;28;20018;-78
2023/05/19 05:56:57;;;;;;;3.50;2.40;;;13.20;60.40;;;;;;4982524;28;20125;-78
2023/05/19 05:59:23;;;;;;;3.65;2.50;;;13.30;60.50;;;;;;5030588;28;20529;-78
2023/05/19 06:01:49;;;;;;;3.53;2.58;;;13.20;60.40;;;;;;4997841;28;20037;-78
2023/05/19 06:04:17;;;;;;;2.70;2.30;;;13.30;60.50;;;;;;5014235;28;20049;-77
2023/05/19 06:06:43;;;;;;;2.95;2.22;;;13.30;60.50;;;;;;5013984;28;20034;-78
2023/05/19 06:09:11;;;;;;;3.95;2.63;;;13.20;60.40;;;;;;4997833;28;20129;-79
2023/05/19 06:11:37;;;;;;;3.58;2.70;;;13.20;60.40;;;;;;5046851;28;20040;-79
2023/05/19 06:14:03;;;;;;;4.05;2.75;;;13.30;60.50;;;;;;4998373;28;20176;-78
2023/05/19 06:16:55;;;;;;;2.80;2.45;;;13.30;60.50;;;;;;5025768;28;20034;-80
2023/05/19 06:19:21;;;;;;;3.38;2.50;;;13.30;60.50;;;;;;5013670;28;20495;-79
2023/05/19 06:21:47;;;;;;;3.35;2.60;;;13.30;60.50;;;;;;4997431;28;20137;-80
2023/05/19 06:24:13;;;;;;;3.45;2.40;;;13.30;60.50;;;;;;5013734;28;20053;-78
2023/05/19 06:26:40;;;;;;;3.38;2.40;;;13.30;60.50;;;;;;5013810;28;20117;-77
2023/05/19 06:29:06;;;;;;;3.47;2.65;;;13.30;60.50;;;;;;5046646;28;20057;-78
2023/05/19 06:31:32;;;;;;;2.88;2.17;;;13.30;60.50;;;;;;5013278;28;20034;-78
2023/05/19 06:34:06;;;;;;;3.15;2.40;;;13.40;60.50;;;;;;5013750;28;20473;-78
2023/05/19 06:36:34;;;;;;;4.10;2.70;;;13.40;60.50;;;;;;5013428;28;20120;-77
2023/05/19 06:38:59;;;;;;;3.22;2.53;;;13.40;60.50;;;;;;5046455;28;20077;-77
2023/05/19 06:41:26;;;;;;;3.60;2.55;;;13.40;60.50;;;;;;5029689;28;20498;-78
2023/05/19 06:43:51;;;;;;;3.10;2.33;;;13.40;60.50;;;;;;4997240;28;20117;-84
2023/05/19 06:46:20;;;;;;;3.83;2.53;;;13.50;60.50;;;;;;4997871;28;20037;-78
2023/05/19 06:48:46;;;;;;;4.45;2.50;;;13.50;60.50;;;;;;4996739;28;20026;-75
2023/05/19 06:51:14;;;;;;;4.78;2.60;;;13.50;60.50;;;;;;5012832;28;20491;-75
2023/05/19 06:53:40;;;;;;;3.83;2.15;;;13.50;60.50;;;;;;5046257;28;20038;-74
2023/05/19 06:56:08;;;;;;;3.90;2.30;;;13.50;60.60;;;;;;5013448;28;20364;-74
2023/05/19 06:58:35;;;;;;;3.20;2.33;;;13.60;60.60;;;;;;5046046;28;20034;-74
2023/05/19 07:01:04;;;;;;;4.65;2.30;;;13.60;60.60;;;;;;5029646;28;20030;-77
2023/05/19 07:03:35;;;;;;;3.72;2.60;;;13.60;60.60;;;;;;4997425;28;20026;-78
2023/05/19 07:06:00;;;;;;;3.30;2.15;;;13.60;60.50;;;;;;5045767;28;20104;-78
2023/05/19 07:08:27;;;;;;;5.07;2.17;;;13.60;60.60;;;;;;5013250;28;20034;-78
2023/05/19 07:10:54;;;;;;;3.50;2.80;;;13.60;60.60;;;;;;5012744;28;20030;-78
2023/05/19 07:13:21;;;;;;;3.13;2.42;;;13.60;60.60;;;;;;5045754;28;20136;-78
2023/05/19 07:15:51;;;;;;;3.38;2.45;;;13.70;60.70;;;;;;5013541;28;20048;-78
2023/05/19 07:18:18;;;;;;;3.10;2.35;;;13.70;60.60;;;;;;5013687;28;20509;-78
2023/05/19 07:20:44;;;;;;;2.80;2.20;;;13.70;60.60;;;;;;5012833;28;20026;-78
2023/05/19 07:23:10;;;;;;;3.63;2.40;;;13.70;60.60;;;;;;5013515;28;20088;-78
2023/05/19 07:25:35;;;;;;;2.90;2.20;;;13.80;60.70;;;;;;4996096;28;20517;-78
2023/05/19 07:28:01;;;;;;;3.25;2.10;;;13.80;60.60;;;;;;5013813;28;20033;-78
2023/05/19 07:30:28;;;;;;;3.17;2.47;;;13.80;60.60;;;;;;5028892;28;20022;-78
2023/05/19 07:32:54;;;;;;;3.90;2.30;;;13.90;60.70;;;;;;5012258;28;20371;-78
2023/05/19 07:35:21;;;;;;;2.90;2.22;;;13.90;60.60;;;;;;5012771;28;20418;-78
2023/05/19 07:37:48;;;;;;;3.80;2.50;;;13.90;60.60;;;;;;5013925;28;20058;-78
2023/05/19 07:40:14;;;;;;;3.78;2.60;;;14.00;60.60;;;;;;5045331;28;20129;-78
2023/05/19 07:42:40;;;;;;;3.65;2.17;;;14.00;60.60;;;;;;5012276;28;20030;-78
2023/05/19 07:45:06;;;;;;;4.68;2.75;;;14.00;60.50;;;;;;4995651;28;20038;-78
2023/05/19 07:47:32;;;;;;;3.10;2.17;;;14.10;60.50;;;;;;4995788;28;20108;-78
2023/05/19 07:49:58;;;;;;;4.05;2.60;;;14.10;60.50;;;;;;5011848;28;20499;-78
2023/05/19 07:52:24;;;;;;;2.75;2.10;;;14.20;60.40;;;;;;5013254;28;20030;-78
2023/05/19 07:54:50;;;;;;;4.38;2.70;;;14.20;60.30;;;;;;5028632;28;20060;-78
2023/05/19 07:57:17;;;;;;;3.70;2.47;;;14.30;60.30;;;;;;4995749;28;20037;-78
2023/05/19 07:59:43;;;;;;;4.28;2.40;;;14.40;60.30;;;;;;5012546;28;20104;-78
2023/05/19 08:02:09;;;;;;;4.50;2.60;;;14.40;60.20;;;;;;5028430;28;20048;-78
2023/05/19 08:04:35;;;;;;;3.63;2.50;;;14.50;60.20;;;;;;5012316;28;20538;-78
2023/05/19 08:07:01;;;;;;;3.13;2.28;;;14.50;60.10;;;;;;5012106;28;20034;-78
2023/05/19 08:09:26;;;;;;;3.15;2.33;;;14.60;60.10;;;;;;5028490;28;20029;-78
2023/05/19 08:11:53;;;;;;;3.65;2.25;;;14.60;59.90;;;;;;5012462;28;20455;-77
2023/05/19 08:14:21;;;;;;;3.35;2.20;;;14.70;59.90;;;;;;5014295;28;20026;-78
2023/05/19 08:16:47;;;;;;;3.05;2.20;;;14.80;59.90;;;;;;5014135;28;20026;-77
2023/05/19 08:19:13;;;;;;;3.08;2.25;;;14.90;59.80;;;;;;5012522;28;20026;-78
2023/05/19 08:21:38;;;;;;;3.15;2.05;;;14.90;59.80;;;;;;5014496;28;20104;-78
2023/05/19 08:24:05;;;;;;;3.30;2.30;;;15.00;59.60;;;;;;4995886;28;20030;-78
2023/05/19 08:26:30;;;;;;;2.58;2.00;;;15.10;59.60;;;;;;5011943;28;20029;-78
2023/05/19 08:28:56;;;;;;;2.88;2.20;;;15.20;59.50;;;;;;4995762;28;20030;-79
2023/05/19 08:31:23;;;;;;;2.25;2.00;;;15.30;59.50;;;;;;5045266;28;20038;-82
2023/05/19 08:33:49;;;;;;;2.83;2.30;;;15.40;59.40;;;;;;5012488;28;20108;-78
2023/05/19 08:36:15;;;;;;;3.22;2.15;;;15.50;59.30;;;;;;5011723;28;20443;-77
2023/05/19 08:38:40;;;;;;;2.65;2.03;;;15.50;59.20;;;;;;5012116;28;20038;-77
2023/05/19 08:41:06;;;;;;;2.17;1.73;;;15.70;59.10;;;;;;4995540;28;20026;-78
2023/05/19 08:43:32;;;;;;;2.30;1.90;;;15.70;59.00;;;;;;5012266;28;20034;-78
2023/05/19 08:45:59;;;;;;;3.28;2.10;;;15.80;58.90;;;;;;5014256;28;20425;-77
2023/05/19 08:48:28;;;;;;;3.28;2.08;;;15.90;58.90;;;;;;4996309;28;20387;-77
2023/05/19 08:51:19;;;;;;;2.10;1.85;;;16.00;58.80;;;;;;5011252;28;20046;-77
2023/05/19 08:53:49;;;;;;;2.75;1.90;;;16.10;58.70;;;;;;5029009;28;20032;-77
2023/05/19 08:56:23;;;;;;;3.78;1.95;;;16.20;58.60;;;;;;5013169;28;20509;-77
2023/05/19 08:58:50;;;;;;;3.10;1.93;;;16.30;58.50;;;;;;5015514;28;20034;-77
2023/05/19 09:01:17;;;;;;;2.30;1.70;;;16.40;58.40;;;;;;5015227;28;20109;-77
2023/05/19 09:03:44;;;;;;;2.67;1.80;;;16.50;58.40;;;;;;5031534;28;20026;-77
2023/05/19 09:06:13;;;;;;;4.03;1.85;;;16.60;58.30;;;;;;5015094;28;20451;-77
2023/05/19 09:08:41;;;;;;;2.95;1.77;;;16.70;58.30;;;;;;5015399;28;20528;-77
2023/05/19 09:11:10;;;;;;;2.22;1.60;;;16.80;58.30;;;;;;5016457;28;20080;-77
2023/05/19 09:13:36;;;;;;;2.85;1.83;;;16.90;58.30;;;;;;5015455;28;20034;-77
2023/05/19 09:16:02;;;;;;;2.10;1.80;;;16.90;58.10;;;;;;5014792;28;20113;-78
2023/05/19 09:18:28;;;;;;;2.85;1.73;;;17.10;58.20;;;;;;5015549;28;20042;-78
2023/05/19 09:21:01;;;;;;;2.88;1.88;;;17.10;58.10;;;;;;5015695;28;20026;-78
2023/05/19 09:23:34;;;;;;;2.85;1.70;;;17.20;58.10;;;;;;5015629;28;20482;-78
2023/05/19 09:26:06;;;;;;;2.65;1.90;;;17.30;58.00;;;;;;5015526;28;20067;-80
2023/05/19 09:28:33;;;;;;;2.75;1.60;;;17.50;57.90;;;;;;5048018;28;20060;-84
2023/05/19 09:31:00;;;;;;;2.47;1.77;;;17.50;57.40;;;;;;5031592;28;20018;-79
2023/05/19 09:33:27;;;;;;;3.20;1.70;;;17.70;57.20;;;;;;4998239;28;20060;-80
2023/05/19 09:35:55;;;;;;;2.20;1.55;;;17.80;56.90;;;;;;4998791;28;20042;-81
2023/05/19 09:38:22;;;;;;;2.65;1.50;;;17.90;56.80;;;;;;5014527;28;20045;-82
2023/05/19 09:40:48;;;;;;;3.50;1.80;;;18.00;56.70;;;;;;5030847;28;20026;-79
2023/05/19 09:43:15;;;;;;;3.20;1.70;;;18.10;56.60;;;;;;5015658;28;20034;-79
2023/05/19 09:45:41;;;;;;;2.17;1.60;;;18.20;56.50;;;;;;4998396;28;20042;-79
2023/05/19 09:48:07;;;;;;;2.55;1.58;;;18.30;56.50;;;;;;5047496;28;20038;-79
2023/05/19 09:50:33;;;;;;;3.45;1.90;;;18.40;56.40;;;;;;5014359;28;20089;-79
2023/05/19 09:52:59;;;;;;;3.00;1.50;;;18.50;56.50;;;;;;5015822;28;20387;-79
2023/05/19 09:55:27;;;;;;;3.50;1.30;;;18.60;56.40;;;;;;4997911;28;20042;-79
2023/05/19 09:57:55;;;;;;;2.45;1.58;;;18.70;56.50;;;;;;5030516;28;20034;-78
2023/05/19 10:00:22;;;;;;;3.03;1.60;;;18.80;56.40;;;;;;5015014;28;20495;-79
2023/05/19 10:02:49;;;;;;;3.80;1.50;;;18.90;56.40;;;;;;5030860;28;20052;-79
2023/05/19 10:05:18;;;;;;;3.15;1.70;;;19.00;56.30;;;;;;4998313;28;20068;-79
2023/05/19 10:07:54;;;;;;;1.90;1.40;;;19.10;56.30;;;;;;5030729;28;20057;-79
2023/05/19 10:10:21;;;;;;;2.28;1.40;;;19.20;56.30;;;;;;5031065;28;20512;-80
2023/05/19 10:12:48;;;;;;;1.67;1.33;;;19.30;56.20;;;;;;5014754;28;20033;-79
2023/05/19 10:15:18;;;;;;;3.33;1.48;;;19.40;56.30;;;;;;5014693;28;20513;-80
2023/05/19 10:17:45;;;;;;;2.15;1.60;;;19.50;56.30;;;;;;5047439;28;20038;-79
2023/05/19 10:20:13;;;;;;;2.85;1.30;;;19.50;56.20;;;;;;5014345;28;20034;-80
2023/05/19 10:22:40;;;;;;;2.60;1.40;;;19.60;56.20;;;;;;5014205;28;20030;-80
2023/05/19 10:25:07;;;;;;;2.22;1.40;;;19.70;56.20;;;;;;5030310;28;20073;-79
2023/05/19 10:27:43;;;;;;;2.00;1.40;;;19.80;56.20;;;;;;5030025;28;20498;-80
2023/05/19 10:30:19;;;;;;;2.35;1.50;;;19.90;56.20;;;;;;5029975;28;20026;-79
2023/05/19 10:32:50;;;;;;;1.85;1.35;;;19.90;56.20;;;;;;5030213;28;20030;-78
2023/05/19 10:35:53;;;;;;;1.80;1.30;;;20.00;56.10;;;;;;5014539;28;20029;-79
2023/05/19 10:38:37;;;;;;;2.38;1.20;;;20.10;56.00;;;;;;5013760;28;20037;-82
2023/05/19 10:41:23;;;;;;;2.42;1.40;;;20.20;55.90;;;;;;5030069;28;20462;-79
2023/05/19 10:44:05;;;;;;;1.45;1.20;;;20.30;55.90;;;;;;5014316;28;20459;-79
2023/05/19 10:46:31;;;;;;;2.45;1.55;;;20.40;55.90;;;;;;5029666;28;20089;-78
2023/05/19 10:48:58;;;;;;;2.25;1.45;;;20.50;55.80;;;;;;5046245;28;20033;-78
2023/05/19 10:51:30;;;;;;;2.45;1.45;;;20.50;55.70;;;;;;5029569;28;20046;-78
2023/05/19 10:53:57;;;;;;;2.13;1.40;;;20.60;55.70;;;;;;5029847;28;20041;-78
2023/05/19 10:56:32;;;;;;;1.58;1.30;;;20.60;56.30;;;;;;4997031;28;20029;-78
2023/05/19 10:58:59;;;;;;;1.63;1.20;;;20.70;55.70;;;;;;5029374;28;20026;-79
2023/05/19 11:01:32;;;;;;;2.17;1.35;;;20.80;55.60;;;;;;5013195;28;20026;-79
2023/05/19 11:04:10;;;;;;;2.33;1.52;;;20.80;55.50;;;;;;5013125;28;20415;-78
2023/05/19 11:06:37;;;;;;;2.20;1.35;;;20.90;55.60;;;;;;5014455;28;20042;-78
2023/05/19 11:09:16;;;;;;;3.20;1.20;;;20.90;55.50;;;;;;4996673;28;20482;-79
2023/05/19 11:11:49;;;;;;;2.33;1.27;;;21.00;55.60;;;;;;5013153;28;20040;-79
2023/05/19 11:14:20;;;;;;;1.65;1.38;;;21.00;55.60;;;;;;5013048;28;20466;-79
2023/05/19 11:16:50;;;;;;;2.15;1.40;;;21.00;55.60;;;;;;5029181;28;20034;-79
2023/05/19 11:19:25;;;;;;;2.45;1.30;;;21.10;55.70;;;;;;5045293;28;20042;-79
2023/05/19 11:21:53;;;;;;;1.70;1.20;;;21.10;55.70;;;;;;5014431;28;20355;-78
2023/05/19 11:24:38;;;;;;;2.25;1.27;;;21.10;55.70;;;;;;5028871;28;20037;-79
2023/05/19 11:27:30;;;;;;;1.80;1.30;;;21.20;55.90;;;;;;5045601;28;20115;-78
2023/05/19 11:29:58;;;;;;;1.85;1.17;;;21.20;55.90;;;;;;5029018;28;20030;-79
2023/05/19 11:32:42;;;;;;;2.90;1.50;;;21.20;55.90;;;;;;5012914;28;20056;-79
2023/05/19 11:35:09;;;;;;;1.35;1.25;;;21.30;56.00;;;;;;5029694;28;20425;-79
2023/05/19 11:37:35;;;;;;;2.83;1.50;;;21.30;56.00;;;;;;5029379;28;20028;-78
2023/05/19 11:40:04;;;;;;;2.05;1.17;;;21.30;55.90;;;;;;5029675;28;20365;-79
2023/05/19 11:42:31;;;;;;;2.20;1.38;;;21.30;55.90;;;;;;5013993;28;20447;-78
2023/05/19 11:44:56;;;;;;;2.13;1.40;;;21.30;55.90;;;;;;5012483;28;20042;-79
2023/05/19 11:47:22;;;;;;;1.90;1.33;;;21.30;55.90;;;;;;4995783;28;20121;-78
2023/05/19 11:49:50;;;;;;;3.10;1.70;;;21.30;56.00;;;;;;4979255;28;20395;-79
2023/05/19 11:52:16;;;;;;;2.70;1.33;;;21.40;56.10;;;;;;5011942;28;20100;-78
2023/05/19 11:54:46;;;;;;;1.85;1.33;;;21.40;56.20;;;;;;5012015;28;20030;-79
2023/05/19 11:57:12;;;;;;;2.10;1.40;;;21.40;56.20;;;;;;5012072;28;20475;-78
2023/05/19 11:59:42;;;;;;;2.35;1.23;;;21.40;56.20;;;;;;4995884;28;20018;-79
2023/05/19 12:02:26;;;;;;;2.25;1.23;;;21.40;56.20;;;;;;5028825;28;20069;-78
2023/05/19 12:04:53;;;;;;;3.28;1.33;;;21.50;56.20;;;;;;5045577;28;20038;-79
2023/05/19 12:07:23;;;;;;;2.42;1.55;;;21.50;56.10;;;;;;5045110;28;20143;-79
2023/05/19 12:09:50;;;;;;;1.85;1.30;;;21.40;56.10;;;;;;5012271;28;20037;-79
2023/05/19 12:12:20;;;;;;;3.17;1.90;;;21.50;56.10;;;;;;5028447;28;20026;-79
2023/05/19 12:14:47;;;;;;;2.55;1.30;;;21.50;56.20;;;;;;5045037;28;20092;-78
2023/05/19 12:17:15;;;;;;;2.88;1.42;;;21.50;56.20;;;;;;5045388;28;20459;-79
2023/05/19 12:19:47;;;;;;;2.72;1.50;;;21.50;56.30;;;;;;5028565;28;20113;-78
2023/05/19 12:22:17;;;;;;;2.28;1.40;;;21.50;56.30;;;;;;5012474;28;20034;-78
2023/05/19 12:24:44;;;;;;;1.85;1.40;;;21.50;56.20;;;;;;5013317;28;20479;-79
2023/05/19 12:27:14;;;;;;;1.90;1.15;;;21.50;56.00;;;;;;5012117;28;20072;-78
2023/05/19 12:29:40;;;;;;;3.30;1.23;;;21.50;56.00;;;;;;5045252;28;20018;-78
2023/05/19 12:32:09;;;;;;;1.83;1.40;;;21.50;55.80;;;;;;5049045;28;20030;-79
2023/05/19 12:34:38;;;;;;;2.45;1.50;;;21.60;56.00;;;;;;4999302;28;20150;-79
2023/05/19 12:37:05;;;;;;;2.80;1.35;;;21.50;55.90;;;;;;5015546;28;20069;-78
2023/05/19 12:39:31;;;;;;;1.98;1.58;;;21.50;55.80;;;;;;5015706;28;20022;-79
2023/05/19 12:42:06;;;;;;;2.53;1.55;;;21.60;55.80;;;;;;5015623;28;20036;-79
2023/05/19 12:44:46;;;;;;;2.13;1.30;;;21.50;55.80;;;;;;5016558;28;20037;-79
2023/05/19 12:47:16;;;;;;;2.33;1.40;;;21.60;55.80;;;;;;5016569;28;20455;-79
2023/05/19 12:49:55;;;;;;;2.63;1.40;;;21.60;55.50;;;;;;5048281;28;20030;-79
2023/05/19 12:52:22;;;;;;;2.65;1.52;;;21.60;55.50;;;;;;5015665;28;20046;-79
2023/05/19 12:54:49;;;;;;;2.03;1.30;;;21.60;55.50;;;;;;4998950;28;20034;-79
2023/05/19 12:57:20;;;;;;;2.25;1.42;;;21.60;55.60;;;;;;5015504;28;20039;-79